Time;durP1;ratioP1;P1;durP2;ratioP2;P2;SDS_P1;SDS_P2;PMS_P1;PMS_P2;Temp;Humidity;BMP_temperature;BMP_pressure;BME280_temperature;BME280_humidity;BME280_pressure;Samples;Min_cycle;Max_cycle;Signal;HPM_P1;HPM_P2
2022/03/07 00:01:05;;;;;;;;;;;0.20;99.90;;;;;;5099597;28;20371;-74
2022/03/07 00:03:30;;;;;;;;;;;0.20;99.90;;;;;;5111970;28;20310;-74
2022/03/07 00:05:56;;;;;;;;;;;0.20;99.90;;;;;;5112264;28;19912;-74
2022/03/07 00:08:22;;;;;;;;;;;0.20;99.90;;;;;;5112007;28;20004;-74
2022/03/07 00:10:47;;;;;;;;;;;0.20;99.90;;;;;;5110866;28;19916;-74
2022/03/07 00:13:13;;;;;;;;;;;0.30;99.90;;;;;;5093433;28;19923;-74
2022/03/07 00:15:38;;;;;;;;;;;0.20;99.90;;;;;;5093714;28;20002;-74
2022/03/07 00:18:04;;;;;;;;;;;0.30;99.90;;;;;;5111874;28;20264;-74
2022/03/07 00:20:30;;;;;;;;;;;0.30;99.90;;;;;;5093198;28;20351;-75
2022/03/07 00:22:55;;;;;;;;;;;0.20;99.90;;;;;;5111418;28;19938;-75
2022/03/07 00:25:21;;;;;;;;;;;0.10;99.90;;;;;;5093480;28;19912;-74
2022/03/07 00:27:46;;;;;;;;;;;0.10;99.90;;;;;;5111713;28;20089;-73
2022/03/07 00:30:12;;;;;;;;;;;0.20;99.90;;;;;;5092975;28;19922;-74
2022/03/07 00:32:38;;;;;;;;;;;0.20;99.90;;;;;;5111308;28;19911;-74
2022/03/07 00:35:03;;;;;;;;;;;0.20;99.90;;;;;;5111553;28;19911;-74
2022/03/07 00:37:30;;;;;;;;;;;0.20;99.90;;;;;;5111457;28;19915;-73
2022/03/07 00:39:56;;;;;;;;;;;0.20;99.90;;;;;;5111273;28;20379;-75
2022/03/07 00:42:21;;;;;;;;;;;0.20;99.90;;;;;;5093049;28;19918;-74
2022/03/07 00:44:47;;;;;;;;;;;0.20;99.90;;;;;;5111297;28;20319;-74
2022/03/07 00:47:13;;;;;;;;;;;0.20;99.90;;;;;;5111293;28;19951;-73
2022/03/07 00:49:38;;;;;;;;;;;0.10;99.90;;;;;;5110976;28;19955;-75
2022/03/07 00:52:04;;;;;;;;;;;0.10;99.90;;;;;;5110891;28;19924;-74
2022/03/07 00:54:29;;;;;;;;;;;0.10;99.90;;;;;;5111469;28;20261;-75
2022/03/07 00:56:55;;;;;;;;;;;0.20;99.90;;;;;;5111409;28;19912;-74
2022/03/07 00:59:21;;;;;;;;;;;0.20;99.90;;;;;;5116102;27;19937;-74
2022/03/07 01:01:46;;;;;;;;;;;0.20;99.90;;;;;;5093539;28;19968;-74
2022/03/07 01:04:12;;;;;;;;;;;0.20;99.90;;;;;;5111201;28;20010;-74
2022/03/07 01:06:37;;;;;;;;;;;0.20;99.90;;;;;;5111268;28;19923;-73
2022/03/07 01:09:03;;;;;;;;;;;0.20;99.90;;;;;;5111107;28;19965;-74
2022/03/07 01:11:29;;;;;;;;;;;0.20;99.90;;;;;;5092791;28;19916;-74
2022/03/07 01:13:54;;;;;;;;;;;0.10;99.90;;;;;;5110989;28;19908;-75
2022/03/07 01:16:20;;;;;;;;;;;0.10;99.90;;;;;;5110983;28;19982;-75
2022/03/07 01:18:45;;;;;;;;;;;0.10;99.90;;;;;;5111194;28;19908;-74
2022/03/07 01:21:12;;;;;;;;;;;0.10;99.90;;;;;;5111304;28;19961;-74
2022/03/07 01:23:37;;;;;;;;;;;0.10;99.90;;;;;;5113930;28;20294;-74
2022/03/07 01:26:03;;;;;;;;;;;0.00;99.90;;;;;;5097063;28;19911;-74
2022/03/07 01:28:28;;;;;;;;;;;0.00;99.90;;;;;;5115155;28;20386;-75
2022/03/07 01:30:54;;;;;;;;;;;0.00;99.90;;;;;;5114986;28;19988;-74
2022/03/07 01:33:19;;;;;;;;;;;0.00;99.90;;;;;;5096530;28;19927;-74
2022/03/07 01:35:45;;;;;;;;;;;0.00;99.90;;;;;;5115313;28;20407;-74
2022/03/07 01:38:11;;;;;;;;;;;0.00;99.90;;;;;;5114959;28;19919;-75
2022/03/07 01:40:36;;;;;;;;;;;0.10;99.90;;;;;;5096456;28;19911;-74
2022/03/07 01:43:02;;;;;;;;;;;0.10;99.90;;;;;;5114665;28;19919;-74
2022/03/07 01:45:28;;;;;;;;;;;0.10;99.90;;;;;;5115079;28;19912;-74
2022/03/07 01:47:53;;;;;;;;;;;0.00;99.90;;;;;;5096213;28;19916;-74
2022/03/07 01:50:20;;;;;;;;;;;0.00;99.90;;;;;;5114338;28;19972;-74
2022/03/07 01:52:50;;;;;;;;;;;0.00;99.90;;;;;;5096008;28;19930;-74
2022/03/07 01:55:16;;;;;;;;;;;0.10;99.90;;;;;;5114842;28;19965;-74
2022/03/07 01:57:45;;;;;;;;;;;0.10;99.90;;;;;;5096110;28;20147;-75
2022/03/07 02:00:15;;;;;;;;;;;0.10;99.90;;;;;;5126642;27;19912;-74
2022/03/07 02:02:41;;;;;;;;;;;0.00;99.90;;;;;;5116477;27;19950;-75
2022/03/07 02:05:08;;;;;;;;;;;0.00;99.90;;;;;;5129199;27;19961;-75
2022/03/07 02:07:33;;;;;;;;;;;0.00;99.90;;;;;;5114487;28;19916;-75
2022/03/07 02:09:59;;;;;;;;;;;0.10;99.90;;;;;;5095829;28;20412;-75
2022/03/07 02:12:25;;;;;;;;;;;0.10;99.90;;;;;;5114192;28;20022;-75
2022/03/07 02:14:50;;;;;;;;;;;0.00;99.90;;;;;;5113943;28;19965;-73
2022/03/07 02:17:16;;;;;;;;;;;0.00;99.90;;;;;;5095989;28;19919;-74
2022/03/07 02:19:42;;;;;;;;;;;-0.10;99.90;;;;;;5115873;27;19998;-74
2022/03/07 02:22:10;;;;;;;;;;;-0.20;99.90;;;;;;5134326;27;19912;-73
2022/03/07 02:24:36;;;;;;;;;;;-0.20;99.90;;;;;;5134466;27;19911;-74
2022/03/07 02:27:03;;;;;;;;;;;-0.20;99.90;;;;;;5134515;27;20324;-75
2022/03/07 02:29:30;;;;;;;;;;;-0.10;99.90;;;;;;5134284;27;19915;-74
2022/03/07 02:31:55;;;;;;;;;;;-0.10;99.90;;;;;;5113516;28;19954;-75
2022/03/07 02:34:21;;;;;;;;;;;-0.10;99.90;;;;;;5113218;28;19951;-76
2022/03/07 02:36:47;;;;;;;;;;;-0.10;99.90;;;;;;5095327;28;19911;-75
2022/03/07 02:39:12;;;;;;;;;;;-0.10;99.90;;;;;;5113862;28;20236;-75
2022/03/07 02:41:39;;;;;;;;;;;-0.10;99.90;;;;;;5113492;28;19919;-75
2022/03/07 02:44:04;;;;;;;;;;;-0.10;99.90;;;;;;5113554;28;19911;-74
2022/03/07 02:46:30;;;;;;;;;;;0.00;99.90;;;;;;5095026;28;19919;-73
2022/03/07 02:48:56;;;;;;;;;;;0.00;99.90;;;;;;5113657;28;20256;-74
2022/03/07 02:51:22;;;;;;;;;;;0.00;99.90;;;;;;5113169;28;20391;-74
2022/03/07 02:53:49;;;;;;;;;;;0.00;99.90;;;;;;5095092;28;19949;-76
2022/03/07 02:56:15;;;;;;;;;;;-0.10;99.90;;;;;;5113778;28;19916;-74
2022/03/07 02:58:40;;;;;;;;;;;-0.10;99.90;;;;;;5113443;28;20007;-74
2022/03/07 03:01:06;;;;;;;;;;;0.00;99.90;;;;;;5118927;27;19935;-73
2022/03/07 03:03:32;;;;;;;;;;;0.00;99.90;;;;;;5094677;28;19916;-75
2022/03/07 03:05:58;;;;;;;;;;;0.00;99.90;;;;;;5094648;28;19994;-74
2022/03/07 03:08:23;;;;;;;;;;;-0.10;99.90;;;;;;5094841;28;19927;-74
2022/03/07 03:10:53;;;;;;;;;;;-0.10;99.90;;;;;;5094782;28;19911;-74
2022/03/07 03:13:20;;;;;;;;;;;-0.10;99.90;;;;;;5094622;28;19916;-74
2022/03/07 03:15:46;;;;;;;;;;;-0.10;99.90;;;;;;5094583;28;19923;-74
2022/03/07 03:18:12;;;;;;;;;;;-0.20;99.90;;;;;;5113286;28;19923;-74
2022/03/07 03:20:37;;;;;;;;;;;-0.10;99.90;;;;;;5113217;28;19908;-75
2022/03/07 03:23:03;;;;;;;;;;;-0.10;99.90;;;;;;5112690;28;20018;-74
2022/03/07 03:25:28;;;;;;;;;;;-0.10;99.90;;;;;;5112911;28;20329;-75
2022/03/07 03:27:54;;;;;;;;;;;-0.10;99.90;;;;;;5094384;28;19926;-74
2022/03/07 03:30:20;;;;;;;;;;;-0.10;99.90;;;;;;5094315;28;19934;-73
2022/03/07 03:32:45;;;;;;;;;;;-0.10;99.90;;;;;;5112263;28;19916;-73
2022/03/07 03:35:11;;;;;;;;;;;-0.20;99.90;;;;;;5112632;28;19912;-75
2022/03/07 03:37:37;;;;;;;;;;;-0.20;99.90;;;;;;5112761;28;20014;-74
2022/03/07 03:40:06;;;;;;;;;;;-0.20;99.90;;;;;;5112281;28;20339;-74
2022/03/07 03:42:32;;;;;;;;;;;-0.20;99.90;;;;;;5112419;28;20363;-74
2022/03/07 03:44:57;;;;;;;;;;;-0.20;99.90;;;;;;5112308;28;19911;-75
2022/03/07 03:47:23;;;;;;;;;;;-0.20;99.90;;;;;;5093134;28;19967;-74
2022/03/07 03:49:49;;;;;;;;;;;-0.20;99.90;;;;;;5093904;28;20011;-74
2022/03/07 03:52:15;;;;;;;;;;;-0.20;99.90;;;;;;5093619;28;19981;-73
2022/03/07 03:54:40;;;;;;;;;;;-0.20;99.90;;;;;;5111927;28;20367;-74
2022/03/07 03:57:06;;;;;;;;;;;-0.20;99.90;;;;;;5093874;28;19912;-74
2022/03/07 03:59:33;;;;;;;;;;;-0.20;99.90;;;;;;5117889;27;19911;-74
2022/03/07 04:01:59;;;;;;;;;;;-0.30;99.90;;;;;;5112041;28;19916;-75
2022/03/07 04:04:24;;;;;;;;;;;-0.30;99.90;;;;;;5112113;28;19912;-74
2022/03/07 04:06:50;;;;;;;;;;;-0.30;99.90;;;;;;5111645;28;19964;-74
2022/03/07 04:09:17;;;;;;;;;;;-0.30;99.90;;;;;;5112072;28;19915;-74
2022/03/07 04:11:43;;;;;;;;;;;-0.30;99.90;;;;;;5111733;28;19992;-75
2022/03/07 04:14:08;;;;;;;;;;;-0.20;99.90;;;;;;5093353;28;20355;-74
2022/03/07 04:16:37;;;;;;;;;;;-0.20;99.90;;;;;;5111049;27;19912;-74
2022/03/07 04:19:03;;;;;;;;;;;-0.20;99.90;;;;;;5113859;27;20320;-73
2022/03/07 04:21:29;;;;;;;;;;;-0.20;99.90;;;;;;5132357;27;19921;-74
2022/03/07 04:23:55;;;;;;;;;;;-0.20;99.90;;;;;;5113481;27;19908;-74
2022/03/07 04:26:20;;;;;;;;;;;-0.20;99.90;;;;;;5116076;27;19947;-75
2022/03/07 04:28:46;;;;;;;;;;;-0.10;99.90;;;;;;5111794;28;19916;-74
2022/03/07 04:31:12;;;;;;;;;;;-0.20;99.90;;;;;;5111850;28;19916;-75
2022/03/07 04:33:37;;;;;;;;;;;-0.20;99.90;;;;;;5092796;28;20282;-74
2022/03/07 04:36:03;;;;;;;;;;;-0.20;99.90;;;;;;5106270;27;19916;-75
2022/03/07 04:38:29;;;;;;;;;;;-0.20;99.90;;;;;;5113650;27;20370;-75
2022/03/07 04:40:54;;;;;;;;;;;-0.20;99.90;;;;;;5119394;27;19918;-74
2022/03/07 04:43:21;;;;;;;;;;;-0.10;99.90;;;;;;5093070;28;19990;-74
2022/03/07 04:45:47;;;;;;;;;;;-0.10;99.90;;;;;;5111733;28;19912;-74
2022/03/07 04:48:14;;;;;;;;;;;-0.20;99.90;;;;;;5093069;28;19981;-74
2022/03/07 04:50:42;;;;;;;;;;;-0.20;99.90;;;;;;5111651;28;19958;-72
2022/03/07 04:53:07;;;;;;;;;;;-0.20;99.90;;;;;;5110806;28;19927;-75
2022/03/07 04:55:33;;;;;;;;;;;-0.10;99.90;;;;;;5111430;28;19916;-74
2022/03/07 04:57:59;;;;;;;;;;;-0.10;99.90;;;;;;5092750;28;19916;-73
2022/03/07 05:00:24;;;;;;;;;;;-0.10;99.90;;;;;;5111398;28;20362;-76
2022/03/07 05:02:50;;;;;;;;;;;-0.10;99.90;;;;;;5111233;28;19961;-74
2022/03/07 05:05:18;;;;;;;;;;;-0.10;99.90;;;;;;5092518;28;19954;-75
2022/03/07 05:07:43;;;;;;;;;;;-0.10;99.90;;;;;;5111224;28;20386;-75
2022/03/07 05:10:09;;;;;;;;;;;-0.10;99.90;;;;;;5111301;28;20037;-73
2022/03/07 05:12:34;;;;;;;;;;;0.00;99.90;;;;;;5111200;28;19918;-74
2022/03/07 05:15:00;;;;;;;;;;;0.00;99.90;;;;;;5092263;28;20355;-74
2022/03/07 05:17:26;;;;;;;;;;;0.00;99.90;;;;;;5111228;28;20275;-74
2022/03/07 05:19:51;;;;;;;;;;;-0.10;99.90;;;;;;5111120;28;19947;-73
2022/03/07 05:22:17;;;;;;;;;;;-0.10;99.90;;;;;;5111344;28;20267;-74
2022/03/07 05:24:43;;;;;;;;;;;-0.10;99.90;;;;;;5092429;28;19911;-75
2022/03/07 05:27:08;;;;;;;;;;;-0.10;99.90;;;;;;5110862;28;19923;-74
2022/03/07 05:29:34;;;;;;;;;;;-0.10;99.90;;;;;;5092620;28;20231;-75
2022/03/07 05:32:00;;;;;;;;;;;0.00;99.90;;;;;;5092542;28;19989;-75
2022/03/07 05:34:26;;;;;;;;;;;0.00;99.90;;;;;;5110817;28;19915;-75
2022/03/07 05:36:51;;;;;;;;;;;0.00;99.90;;;;;;5092269;28;19912;-74
2022/03/07 05:39:18;;;;;;;;;;;0.00;99.90;;;;;;5092386;28;19912;-75
2022/03/07 05:41:43;;;;;;;;;;;0.00;99.90;;;;;;5092680;28;20280;-74
2022/03/07 05:44:09;;;;;;;;;;;0.00;99.90;;;;;;5110593;28;19912;-74
2022/03/07 05:46:35;;;;;;;;;;;0.00;99.90;;;;;;5110521;28;19919;-74
2022/03/07 05:49:01;;;;;;;;;;;0.10;99.90;;;;;;5092541;28;20200;-74
2022/03/07 05:51:26;;;;;;;;;;;0.00;99.90;;;;;;5110411;28;19930;-75
2022/03/07 05:53:52;;;;;;;;;;;0.00;99.90;;;;;;5110625;28;19951;-73
2022/03/07 05:56:18;;;;;;;;;;;0.10;99.90;;;;;;5110371;28;19926;-75
2022/03/07 05:58:44;;;;;;;;;;;0.20;99.90;;;;;;5092593;28;19908;-74
2022/03/07 06:01:09;;;;;;;;;;;0.20;99.90;;;;;;5116110;28;19920;-74
2022/03/07 06:03:35;;;;;;;;;;;0.20;99.90;;;;;;5110513;28;19965;-75
2022/03/07 06:06:00;;;;;;;;;;;0.20;99.90;;;;;;5092142;28;19912;-76
2022/03/07 06:08:26;;;;;;;;;;;0.20;99.90;;;;;;5110635;28;19916;-73
2022/03/07 06:10:52;;;;;;;;;;;0.20;99.90;;;;;;5113980;28;19912;-73
2022/03/07 06:13:19;;;;;;;;;;;0.20;99.90;;;;;;5095889;28;19996;-74
2022/03/07 06:15:45;;;;;;;;;;;0.30;99.90;;;;;;5114384;28;19961;-74
2022/03/07 06:18:11;;;;;;;;;;;0.30;99.90;;;;;;5114227;28;19912;-74
2022/03/07 06:20:37;;;;;;;;;;;0.40;99.90;;;;;;5095613;28;20077;-73
2022/03/07 06:23:04;;;;;;;;;;;0.40;99.90;;;;;;5095474;28;20256;-73
2022/03/07 06:25:30;;;;;;;;;;;0.40;99.90;;;;;;5113936;28;19926;-74
2022/03/07 06:27:56;;;;;;;;;;;0.40;99.90;;;;;;5095538;28;20011;-74
2022/03/07 06:30:22;;;;;;;;;;;0.50;99.90;;;;;;5095546;28;20298;-75
2022/03/07 06:32:47;;;;;;;;;;;0.50;99.90;;;;;;5114013;28;19912;-74
2022/03/07 06:35:13;;;;;;;;;;;0.50;99.90;;;;;;5113548;28;20347;-75
2022/03/07 06:37:44;;;;;;;;;;;0.50;99.90;;;;;;5113840;28;19919;-74
2022/03/07 06:40:10;;;;;;;;;;;0.50;99.90;;;;;;5114002;28;19947;-73
2022/03/07 06:42:36;;;;;;;;;;;0.70;99.90;;;;;;5095208;28;20348;-73
2022/03/07 06:45:02;;;;;;;;;;;0.60;99.90;;;;;;5113421;28;19918;-74
2022/03/07 06:47:28;;;;;;;;;;;0.60;99.90;;;;;;5095258;28;19963;-73
2022/03/07 06:49:57;;;;;;;;;;;0.60;99.90;;;;;;5113504;28;19919;-74
2022/03/07 06:52:23;;;;;;;;;;;0.70;99.90;;;;;;5113273;28;19928;-75
2022/03/07 06:54:49;;;;;;;;;;;0.70;99.90;;;;;;5094854;28;20595;-73
2022/03/07 06:57:14;;;;;;;;;;;0.70;99.90;;;;;;5113130;28;20006;-74
2022/03/07 06:59:40;;;;;;;;;;;0.80;99.90;;;;;;5119015;27;20022;-74
2022/03/07 07:02:05;;;;;;;;;;;0.90;99.90;;;;;;5113429;28;19919;-74
2022/03/07 07:04:31;;;;;;;;;;;0.90;99.90;;;;;;5113459;28;19997;-74
2022/03/07 07:06:57;;;;;;;;;;;0.90;99.90;;;;;;5094786;28;20393;-74
2022/03/07 07:09:22;;;;;;;;;;;0.90;99.90;;;;;;5113342;28;19943;-74
2022/03/07 07:11:48;;;;;;;;;;;0.90;99.90;;;;;;5114316;27;19915;-73
2022/03/07 07:14:14;;;;;;;;;;;1.00;99.90;;;;;;5133848;27;20327;-74
2022/03/07 07:16:39;;;;;;;;;;;1.00;99.90;;;;;;5114981;27;19915;-74
2022/03/07 07:19:05;;;;;;;;;;;1.10;99.90;;;;;;5133576;27;19944;-75
2022/03/07 07:21:30;;;;;;;;;;;1.00;99.90;;;;;;5115947;27;20272;-74
2022/03/07 07:23:56;;;;;;;;;;;1.00;99.90;;;;;;5094423;28;19912;-75
2022/03/07 07:26:22;;;;;;;;;;;1.00;99.90;;;;;;5112661;28;19911;-74
2022/03/07 07:28:47;;;;;;;;;;;1.10;99.90;;;;;;5094378;28;19916;-73
2022/03/07 07:31:13;;;;;;;;;;;1.20;99.90;;;;;;5112606;28;19965;-74
2022/03/07 07:33:38;;;;;;;;;;;1.20;99.90;;;;;;5112486;28;19918;-74
2022/03/07 07:36:04;;;;;;;;;;;1.20;99.90;;;;;;5107323;27;19961;-75
2022/03/07 07:38:30;;;;;;;;;;;1.30;99.90;;;;;;5133014;27;19960;-74
2022/03/07 07:40:56;;;;;;;;;;;1.40;99.90;;;;;;5133441;27;19922;-75
2022/03/07 07:43:21;;;;;;;;;;;1.40;99.90;;;;;;5114614;27;19911;-73
2022/03/07 07:45:47;;;;;;;;;;;1.70;99.90;;;;;;5122299;27;19912;-74
2022/03/07 07:48:12;;;;;;;;;;;1.60;99.90;;;;;;5112208;28;19919;-74
2022/03/07 07:50:38;;;;;;;;;;;1.60;99.90;;;;;;5112609;28;19916;-75
2022/03/07 07:53:04;;;;;;;;;;;1.60;99.90;;;;;;5111958;28;20016;-74
2022/03/07 07:55:29;;;;;;;;;;;1.70;99.90;;;;;;5093592;28;19916;-74
2022/03/07 07:57:55;;;;;;;;;;;1.80;99.90;;;;;;5112224;28;19912;-74
2022/03/07 08:00:20;;;;;;;;;;;1.80;99.90;;;;;;5099761;28;19949;-75
2022/03/07 08:02:47;;;;;;;;;;;2.00;99.90;;;;;;5111925;28;19912;-73
2022/03/07 08:05:13;;;;;;;;;;;2.00;99.90;;;;;;5118264;27;19919;-74
2022/03/07 08:07:41;;;;;;;;;;;1.90;99.90;;;;;;5113975;27;20427;-74
2022/03/07 08:10:07;;;;;;;;;;;1.90;99.90;;;;;;5108560;28;19912;-73
2022/03/07 08:12:32;;;;;;;;;;;1.90;99.90;;;;;;5111995;28;19919;-74
2022/03/07 08:14:58;;;;;;;;;;;1.90;99.90;;;;;;5097391;27;20464;-75
2022/03/07 08:17:24;;;;;;;;;;;1.90;99.90;;;;;;5132455;27;19946;-75
2022/03/07 08:19:49;;;;;;;;;;;1.90;99.90;;;;;;5129484;27;19920;-74
2022/03/07 08:22:15;;;;;;;;;;;1.90;99.90;;;;;;5093480;28;20006;-74
2022/03/07 08:24:41;;;;;;;;;;;1.90;99.90;;;;;;5111598;28;20256;-74
2022/03/07 08:27:06;;;;;;;;;;;1.90;99.90;;;;;;5093163;28;19912;-73
2022/03/07 08:29:32;;;;;;;;;;;1.90;99.90;;;;;;5111426;28;20364;-74
2022/03/07 08:31:58;;;;;;;;;;;1.90;99.90;;;;;;5110906;28;19918;-74
2022/03/07 08:34:23;;;;;;;;;;;2.00;99.90;;;;;;5093301;28;19912;-75
2022/03/07 08:36:49;;;;;;;;;;;1.90;99.90;;;;;;5111171;28;20042;-76
2022/03/07 08:39:15;;;;;;;;;;;2.00;99.90;;;;;;5111639;28;19912;-73
2022/03/07 08:41:40;;;;;;;;;;;2.00;99.90;;;;;;5092947;28;19912;-75
2022/03/07 08:44:06;;;;;;;;;;;1.90;99.90;;;;;;5093436;28;19908;-74
2022/03/07 08:46:34;;;;;;;;;;;2.00;99.90;;;;;;5111242;28;20275;-75
2022/03/07 08:49:00;;;;;;;;;;;2.10;99.90;;;;;;5111124;28;20140;-75
2022/03/07 08:51:25;;;;;;;;;;;2.10;99.90;;;;;;5111061;28;19930;-74
2022/03/07 08:53:51;;;;;;;;;;;2.00;99.90;;;;;;5092905;28;19911;-74
2022/03/07 08:56:17;;;;;;;;;;;2.00;99.90;;;;;;5092767;28;19935;-73
2022/03/07 08:58:42;;;;;;;;;;;2.00;99.90;;;;;;5092664;28;20290;-74
2022/03/07 09:01:09;;;;;;;;;;;2.00;99.90;;;;;;5125446;27;19989;-74
2022/03/07 09:03:35;;;;;;;;;;;2.00;99.90;;;;;;5131573;27;19912;-74
2022/03/07 09:06:00;;;;;;;;;;;2.10;99.90;;;;;;5119001;28;20335;-73
2022/03/07 09:08:26;;;;;;;;;;;2.10;99.90;;;;;;5111136;28;19959;-74
2022/03/07 09:10:52;;;;;;;;;;;2.10;99.90;;;;;;5111291;28;19912;-75
2022/03/07 09:13:17;;;;;;;;;;;2.10;99.90;;;;;;5092897;28;19912;-74
2022/03/07 09:15:45;;;;;;;;;;;2.20;99.90;;;;;;5092794;28;19972;-74
2022/03/07 09:18:12;;;;;;;;;;;2.40;99.90;;;;;;5110997;28;19994;-74
2022/03/07 09:20:39;;;;;;;;;;;2.50;99.90;;;;;;5110911;28;19947;-75
2022/03/07 09:23:04;;;;;;;;;;;2.60;99.90;;;;;;5110917;28;20321;-75
2022/03/07 09:25:30;;;;;;;;;;;2.60;99.90;;;;;;5111081;28;20015;-74
2022/03/07 09:27:56;;;;;;;;;;;2.60;99.90;;;;;;5092465;28;19916;-73
2022/03/07 09:30:21;;;;;;;;;;;2.60;99.90;;;;;;5092485;28;19923;-74
2022/03/07 09:32:47;;;;;;;;;;;2.50;99.90;;;;;;5110887;28;19919;-73
2022/03/07 09:35:14;;;;;;;;;;;2.50;99.90;;;;;;5117066;28;20370;-74
2022/03/07 09:37:40;;;;;;;;;;;2.40;99.90;;;;;;5112967;28;20389;-73
2022/03/07 09:40:05;;;;;;;;;;;2.50;99.90;;;;;;5112638;28;19911;-74
2022/03/07 09:42:31;;;;;;;;;;;2.60;99.90;;;;;;5131395;28;20383;-73
2022/03/07 09:44:57;;;;;;;;;;;2.70;99.90;;;;;;5130881;27;19912;-74
2022/03/07 09:47:23;;;;;;;;;;;2.70;99.90;;;;;;5115320;28;20015;-74
2022/03/07 09:49:52;;;;;;;;;;;2.80;99.90;;;;;;5095759;28;19911;-75
2022/03/07 09:52:18;;;;;;;;;;;2.80;99.90;;;;;;5114463;28;19924;-75
2022/03/07 09:54:43;;;;;;;;;;;2.80;99.90;;;;;;5114532;28;19927;-74
2022/03/07 09:57:10;;;;;;;;;;;2.80;99.90;;;;;;5096255;28;20312;-73
2022/03/07 09:59:36;;;;;;;;;;;2.90;99.90;;;;;;5101710;27;19947;-74
2022/03/07 10:02:03;;;;;;;;;;;3.00;99.90;;;;;;5114287;28;20407;-73
2022/03/07 10:04:30;;;;;;;;;;;3.10;99.90;;;;;;5114449;28;19907;-76
2022/03/07 10:06:56;;;;;;;;;;;3.30;99.90;;;;;;5114140;28;20375;-74
2022/03/07 10:09:22;;;;;;;;;;;3.50;99.90;;;;;;5114109;28;20006;-74
2022/03/07 10:11:52;;;;;;;;;;;3.60;99.90;;;;;;5133845;27;20466;-74
2022/03/07 10:14:18;;;;;;;;;;;3.70;99.90;;;;;;5134944;27;19907;-74
2022/03/07 10:16:43;;;;;;;;;;;3.80;99.90;;;;;;5134560;27;19915;-74
2022/03/07 10:19:13;;;;;;;;;;;3.70;99.90;;;;;;5134527;27;20366;-73
2022/03/07 10:21:52;;;;;;;;;;;3.70;99.90;;;;;;5116114;27;20028;-74
2022/03/07 10:24:18;;;;;;;;;;;3.80;99.90;;;;;;5095766;28;19927;-74
2022/03/07 10:26:44;;;;;;;;;;;3.90;99.90;;;;;;5095605;28;20370;-75
2022/03/07 10:29:09;;;;;;;;;;;3.80;99.90;;;;;;5113672;28;19919;-74
2022/03/07 10:31:37;;;;;;;;;;;3.80;99.90;;;;;;5095635;28;20371;-76
2022/03/07 10:34:06;;;;;;;;;;;3.80;99.90;;;;;;5095577;28;19965;-74
2022/03/07 10:36:33;;;;;;;;;;;3.90;99.90;;;;;;5112662;27;20370;-74
2022/03/07 10:38:59;;;;;;;;;;;3.90;99.90;;;;;;5115485;27;19911;-74
2022/03/07 10:41:35;;;;;;;;;;;3.80;99.90;;;;;;5133801;27;19922;-75
2022/03/07 10:44:01;;;;;;;;;;;3.80;99.90;;;;;;5134683;27;19947;-74
2022/03/07 10:46:27;;;;;;;;;;;3.70;99.90;;;;;;5136578;27;19929;-73
2022/03/07 10:48:53;;;;;;;;;;;3.70;99.90;;;;;;5116084;27;19998;-75
2022/03/07 10:51:20;;;;;;;;;;;3.50;99.90;;;;;;5133602;27;19915;-74
2022/03/07 10:53:46;;;;;;;;;;;3.20;99.90;;;;;;5134273;27;20347;-74
2022/03/07 10:56:16;;;;;;;;;;;3.00;99.90;;;;;;5138178;27;19911;-75
2022/03/07 10:58:49;;;;;;;;;;;2.90;99.90;;;;;;5115594;27;19955;-74
2022/03/07 11:01:26;;;;;;;;;;;2.90;99.90;;;;;;5109773;27;19912;-74
2022/03/07 11:03:51;;;;;;;;;;;2.90;99.90;;;;;;5115279;27;20351;-74
2022/03/07 11:06:17;;;;;;;;;;;2.80;99.90;;;;;;5100372;28;19915;-74
2022/03/07 11:08:44;;;;;;;;;;;2.80;99.90;;;;;;5113897;28;20369;-74
2022/03/07 11:11:11;;;;;;;;;;;2.70;99.90;;;;;;5094621;28;19922;-73
2022/03/07 11:13:37;;;;;;;;;;;2.60;99.90;;;;;;5094891;28;20364;-73
2022/03/07 11:16:04;;;;;;;;;;;2.60;99.90;;;;;;5113121;28;19916;-74
2022/03/07 11:18:30;;;;;;;;;;;2.70;99.90;;;;;;5094980;28;19912;-74
2022/03/07 11:20:56;;;;;;;;;;;2.70;99.90;;;;;;5113020;28;19912;-74
2022/03/07 11:23:23;;;;;;;;;;;2.80;99.90;;;;;;5112992;28;19912;-75
2022/03/07 11:25:49;;;;;;;;;;;2.80;99.90;;;;;;5094874;28;19923;-75
2022/03/07 11:28:15;;;;;;;;;;;2.80;99.90;;;;;;5112896;28;19916;-74
2022/03/07 11:30:42;;;;;;;;;;;2.70;99.90;;;;;;5113034;28;19935;-73
2022/03/07 11:33:09;;;;;;;;;;;2.70;99.90;;;;;;5094474;28;20268;-75
2022/03/07 11:35:35;;;;;;;;;;;2.70;99.90;;;;;;5103915;27;19912;-74
2022/03/07 11:38:24;;;;;;;;;;;2.70;99.90;;;;;;5114836;27;19923;-74
2022/03/07 11:41:00;;;;;;;;;;;2.70;99.90;;;;;;5129730;27;19953;-74
2022/03/07 11:43:27;;;;;;;;;;;2.70;99.90;;;;;;5133294;27;20256;-75
2022/03/07 11:45:54;;;;;;;;;;;2.80;99.90;;;;;;5114806;27;20252;-74
2022/03/07 11:48:20;;;;;;;;;;;2.70;99.90;;;;;;5132980;27;20342;-74
2022/03/07 11:50:46;;;;;;;;;;;2.70;99.90;;;;;;5141157;27;19911;-74
2022/03/07 11:53:14;;;;;;;;;;;2.60;99.90;;;;;;5132686;27;20416;-73
2022/03/07 11:55:50;;;;;;;;;;;2.50;99.90;;;;;;5114516;27;19911;-73
2022/03/07 11:58:26;;;;;;;;;;;2.50;99.90;;;;;;5132939;27;20410;-73
2022/03/07 12:01:05;;;;;;;;;;;2.40;99.90;;;;;;5142198;27;19960;-74
2022/03/07 12:03:34;;;;;;;;;;;2.30;99.90;;;;;;5132697;27;19927;-74
2022/03/07 12:06:00;;;;;;;;;;;2.20;99.90;;;;;;5101512;28;19937;-73
2022/03/07 12:08:26;;;;;;;;;;;2.20;99.90;;;;;;5111262;28;19942;-73
2022/03/07 12:10:59;;;;;;;;;;;2.20;99.90;;;;;;5104878;27;19915;-74
2022/03/07 12:13:25;;;;;;;;;;;2.20;99.90;;;;;;5132448;27;19912;-73
2022/03/07 12:15:53;;;;;;;;;;;2.20;99.90;;;;;;5114047;27;20407;-75
2022/03/07 12:18:19;;;;;;;;;;;2.20;99.90;;;;;;5132453;27;19912;-75
2022/03/07 12:20:45;;;;;;;;;;;2.20;99.90;;;;;;5121660;27;19918;-75
2022/03/07 12:23:11;;;;;;;;;;;2.10;99.90;;;;;;5111680;28;20488;-74
2022/03/07 12:25:36;;;;;;;;;;;2.00;99.90;;;;;;5121568;27;20215;-74
2022/03/07 12:28:03;;;;;;;;;;;2.00;99.90;;;;;;5132191;27;20301;-75
2022/03/07 12:30:29;;;;;;;;;;;2.00;99.90;;;;;;5113895;27;19942;-74
2022/03/07 12:32:54;;;;;;;;;;;2.00;99.90;;;;;;5131806;27;19912;-75
2022/03/07 12:35:20;;;;;;;;;;;2.10;99.90;;;;;;5113695;27;19915;-74
2022/03/07 12:37:46;;;;;;;;;;;2.80;99.90;;;;;;5148013;27;20007;-74
2022/03/07 12:40:12;;;;;;;;;;;2.40;99.90;;;;;;5125673;27;19919;-75
2022/03/07 12:42:40;;;;;;;;;;;2.50;99.90;;;;;;5092989;28;19912;-75
2022/03/07 12:45:06;;;;;;;;;;;2.60;99.90;;;;;;5093077;28;20389;-74
2022/03/07 12:47:33;;;;;;;;;;;2.60;99.90;;;;;;5093298;28;19915;-74
2022/03/07 12:49:59;;;;;;;;;;;2.70;99.90;;;;;;5111839;28;19937;-74
2022/03/07 12:52:29;;;;;;;;;;;2.50;99.90;;;;;;5111629;28;19928;-74
2022/03/07 12:54:55;;;;;;;;;;;2.60;99.90;;;;;;5092834;28;19912;-75
2022/03/07 12:57:21;;;;;;;;;;;2.60;99.90;;;;;;5093291;28;20259;-75
2022/03/07 12:59:56;;;;;;;;;;;2.50;99.90;;;;;;5098613;28;19911;-75
2022/03/07 13:02:21;;;;;;;;;;;2.30;99.90;;;;;;5092980;28;19912;-74
2022/03/07 13:04:53;;;;;;;;;;;2.30;99.90;;;;;;5092862;28;20313;-74
2022/03/07 13:07:18;;;;;;;;;;;2.30;99.90;;;;;;5111558;28;19911;-75
2022/03/07 13:09:44;;;;;;;;;;;2.40;99.90;;;;;;5092644;28;19922;-74
2022/03/07 13:12:10;;;;;;;;;;;2.30;99.90;;;;;;5111156;28;20336;-73
2022/03/07 13:14:36;;;;;;;;;;;2.30;99.90;;;;;;5092639;28;19912;-74
2022/03/07 13:17:03;;;;;;;;;;;2.30;99.90;;;;;;5092823;28;20488;-74
2022/03/07 13:19:29;;;;;;;;;;;2.20;99.90;;;;;;5095928;28;20236;-74
2022/03/07 13:21:54;;;;;;;;;;;2.20;99.90;;;;;;5096684;28;19916;-74
2022/03/07 13:24:25;;;;;;;;;;;2.10;99.90;;;;;;5115533;28;20283;-74
2022/03/07 13:27:01;;;;;;;;;;;2.20;99.90;;;;;;5115128;28;20006;-73
2022/03/07 13:29:27;;;;;;;;;;;2.20;99.90;;;;;;5115450;28;19916;-75
2022/03/07 13:31:59;;;;;;;;;;;2.20;99.90;;;;;;5135288;27;19911;-74
2022/03/07 13:34:25;;;;;;;;;;;2.30;99.90;;;;;;5117296;27;19911;-73
2022/03/07 13:36:51;;;;;;;;;;;2.20;99.90;;;;;;5117092;27;19915;-74
2022/03/07 13:39:17;;;;;;;;;;;2.20;99.90;;;;;;5135557;27;19912;-74
2022/03/07 13:41:47;;;;;;;;;;;2.10;99.90;;;;;;5116495;27;20098;-75
2022/03/07 13:44:12;;;;;;;;;;;2.10;99.90;;;;;;5096746;28;19915;-74
2022/03/07 13:46:38;;;;;;;;;;;2.10;99.90;;;;;;5096459;28;19913;-75
2022/03/07 13:49:04;;;;;;;;;;;2.10;99.90;;;;;;5096524;28;19912;-73
2022/03/07 13:51:30;;;;;;;;;;;2.10;99.90;;;;;;5114599;28;20015;-75
2022/03/07 13:53:59;;;;;;;;;;;2.10;99.90;;;;;;5114487;28;19911;-74
2022/03/07 13:56:26;;;;;;;;;;;2.10;99.90;;;;;;5114604;28;19919;-73
2022/03/07 13:58:51;;;;;;;;;;;2.10;99.90;;;;;;5115618;27;20355;-74
2022/03/07 14:01:18;;;;;;;;;;;2.00;99.90;;;;;;5119869;27;19919;-75
2022/03/07 14:03:44;;;;;;;;;;;1.90;99.90;;;;;;5095803;28;20374;-73
2022/03/07 14:06:16;;;;;;;;;;;1.90;99.90;;;;;;5096009;28;20247;-74
2022/03/07 14:08:42;;;;;;;;;;;1.80;99.90;;;;;;5114610;28;19969;-74
2022/03/07 14:11:09;;;;;;;;;;;1.80;99.90;;;;;;5114753;28;19918;-74
2022/03/07 14:13:38;;;;;;;;;;;1.70;99.90;;;;;;5095743;28;19919;-74
2022/03/07 14:16:04;;;;;;;;;;;1.80;99.90;;;;;;5114637;28;19912;-74
2022/03/07 14:18:30;;;;;;;;;;;1.80;99.90;;;;;;5114397;28;19922;-75
2022/03/07 14:20:55;;;;;;;;;;;1.80;99.90;;;;;;5095834;28;19912;-74
2022/03/07 14:23:21;;;;;;;;;;;1.90;99.90;;;;;;5113993;28;19919;-74